createdAt,value
2022-10-13T00:02:42.931Z,25.59
2022-10-13T00:07:44.809Z,22.59
2022-10-13T00:12:46.809Z,21.77
2022-10-13T00:17:50.088Z,22.50
2022-10-13T00:22:52.103Z,23.96
2022-10-13T00:27:54.229Z,23.29
2022-10-13T00:32:58.293Z,25.62
2022-10-13T00:38:00.702Z,26.62
2022-10-13T00:43:21.863Z,24.77
2022-10-13T00:48:30.341Z,26.01
2022-10-13T00:53:35.734Z,25.32
2022-10-13T00:58:39.129Z,25.30
2022-10-13T01:03:41.202Z,25.30
2022-10-13T01:08:49.616Z,25.50
2022-10-13T01:14:32.042Z,24.69
2022-10-13T01:20:09.025Z,22.82
2022-10-13T01:25:56.282Z,23.20
2022-10-13T01:31:13.784Z,28.01
2022-10-13T01:36:47.957Z,25.11
2022-10-13T01:41:54.149Z,23.66
2022-10-13T01:46:57.239Z,30.27
2022-10-13T01:52:03.400Z,27.65
2022-10-13T01:57:25.337Z,26.38
2022-10-13T02:02:34.341Z,24.91
2022-10-13T02:07:44.805Z,25.59
2022-10-13T02:12:51.442Z,24.30
2022-10-13T02:17:53.747Z,23.72
2022-10-13T02:23:01.330Z,21.73
2022-10-13T02:28:03.964Z,24.94
2022-10-13T02:33:11.270Z,23.82
2022-10-13T02:38:13.543Z,22.24
2022-10-13T02:43:16.560Z,25.87
2022-10-13T02:48:18.429Z,22.36
2022-10-13T02:53:20.603Z,25.77
2022-10-13T02:58:22.556Z,23.05
2022-10-13T03:03:27.341Z,23.21
2022-10-13T03:08:29.448Z,25.17
2022-10-13T03:13:31.601Z,25.82
2022-10-13T03:18:41.261Z,24.41
2022-10-13T03:23:43.141Z,24.32
2022-10-13T03:28:52.211Z,25.26
2022-10-13T03:33:54.641Z,26.54
2022-10-13T03:38:56.524Z,25.42
2022-10-13T03:43:58.446Z,28.13
2022-10-13T03:49:00.368Z,31.84
2022-10-13T03:54:04.757Z,34.26
2022-10-13T03:59:06.734Z,34.43
2022-10-13T04:04:11.056Z,30.46
2022-10-13T04:09:16.805Z,29.51
2022-10-13T04:14:19.685Z,29.81
2022-10-13T04:19:21.534Z,30.19
2022-10-13T04:24:23.596Z,28.54
2022-10-13T04:29:25.549Z,28.01
2022-10-13T04:34:28.959Z,28.01
2022-10-13T04:39:31.480Z,29.71
2022-10-13T04:44:33.394Z,31.66
2022-10-13T04:49:35.326Z,29.13
2022-10-13T04:54:37.360Z,27.49
2022-10-13T04:59:39.229Z,30.48
2022-10-13T05:04:41.372Z,29.80
2022-10-13T05:09:43.210Z,29.00
2022-10-13T05:14:48.025Z,29.60
2022-10-13T05:19:49.993Z,26.79
2022-10-13T05:24:51.964Z,29.33
2022-10-13T05:29:53.862Z,29.66
2022-10-13T05:34:55.873Z,29.92
2022-10-13T05:39:57.809Z,26.27
2022-10-13T05:44:59.668Z,25.71
2022-10-13T05:50:01.554Z,26.08
2022-10-13T05:55:06.037Z,28.02
2022-10-13T06:00:10.707Z,30.36
2022-10-13T06:05:18.870Z,31.78
2022-10-13T06:10:21.072Z,32.11
2022-10-13T06:15:27.782Z,36.98
2022-10-13T06:20:31.345Z,37.76
2022-10-13T06:25:33.489Z,38.36
2022-10-13T06:30:35.408Z,38.57
2022-10-13T06:35:38.086Z,41.40
2022-10-13T06:40:39.919Z,44.51
2022-10-13T06:45:42.021Z,46.47
2022-10-13T06:50:43.862Z,44.60
2022-10-13T06:55:50.184Z,42.81
2022-10-13T07:00:55.146Z,43.76
2022-10-13T07:06:08.148Z,40.66
2022-10-13T07:11:17.345Z,38.46
2022-10-13T07:16:23.641Z,37.57
2022-10-13T07:21:25.609Z,38.33
2022-10-13T07:26:27.473Z,37.59
2022-10-13T07:31:29.457Z,36.80
2022-10-13T07:36:35.493Z,36.43
2022-10-13T07:41:37.935Z,38.98
2022-10-13T07:46:46.241Z,40.57
2022-10-13T07:51:54.144Z,41.13
2022-10-13T07:56:56.579Z,40.81
2022-10-13T08:02:00.465Z,38.38
2022-10-13T08:07:04.205Z,35.96
2022-10-13T08:12:06.284Z,37.00
2022-10-13T08:17:08.185Z,32.59
2022-10-13T08:22:11.469Z,33.41
2022-10-13T08:27:21.931Z,31.78
2022-10-13T08:32:24.513Z,29.51
2022-10-13T08:37:26.640Z,26.74
2022-10-13T08:42:28.616Z,26.08
2022-10-13T08:47:35.746Z,25.04
2022-10-13T08:53:00.608Z,22.34
2022-10-13T08:58:06.765Z,22.43
2022-10-13T09:03:22.800Z,22.27
2022-10-13T09:08:26.870Z,21.25
2022-10-13T09:13:30.214Z,20.12
2022-10-13T09:18:34.015Z,21.89
2022-10-13T09:23:39.519Z,17.28
2022-10-13T09:28:43.898Z,15.44
2022-10-13T09:33:46.923Z,10.55
2022-10-13T09:39:17.113Z,6.66
2022-10-13T09:44:31.317Z,7.09
2022-10-13T09:49:35.789Z,6.98
2022-10-13T09:54:42.009Z,4.54
2022-10-13T10:00:14.524Z,-0.71
2022-10-13T10:05:37.689Z,-1.95
2022-10-13T10:10:40.982Z,-3.22
2022-10-13T10:15:58.266Z,-4.71
2022-10-13T10:21:06.805Z,-5.53
2022-10-13T10:26:19.412Z,-3.75
2022-10-13T10:31:57.960Z,117.43
2022-10-13T10:37:08.821Z,115.54
2022-10-13T10:42:38.637Z,113.87
2022-10-13T10:47:43.456Z,115.79
2022-10-13T10:53:09.205Z,115.79
2022-10-13T10:58:20.576Z,112.40
2022-10-13T11:03:34.504Z,110.42
2022-10-13T11:08:48.073Z,111.55
2022-10-13T11:13:54.382Z,111.07
2022-10-13T11:19:05.830Z,109.22
2022-10-13T11:24:33.710Z,109.55
2022-10-13T11:29:45.613Z,109.27
2022-10-13T11:35:06.786Z,109.39
2022-10-13T11:40:39.699Z,107.31
2022-10-13T11:45:53.644Z,109.63
2022-10-13T11:51:16.427Z,108.36
2022-10-13T11:56:34.672Z,105.09
2022-10-13T12:01:44.219Z,106.30
2022-10-13T12:06:58.297Z,105.43
2022-10-13T12:12:20.597Z,104.95
2022-10-13T12:17:27.681Z,104.79
2022-10-13T12:22:30.116Z,105.82
2022-10-13T12:27:47.648Z,107.06
2022-10-13T12:32:52.029Z,106.40
2022-10-13T12:37:55.640Z,106.37
2022-10-13T12:42:57.489Z,106.26
2022-10-13T12:47:59.732Z,106.19
2022-10-13T12:53:18.659Z,105.50
2022-10-13T12:58:24.536Z,105.65
2022-10-13T13:03:29.139Z,106.63
2022-10-13T13:08:32.077Z,106.31
2022-10-13T13:13:34.781Z,105.42
2022-10-13T13:18:42.618Z,106.66
2022-10-13T13:23:52.778Z,106.08
2022-10-13T13:28:57.129Z,106.64
2022-10-13T13:33:59.016Z,105.36
2022-10-13T13:39:00.916Z,104.89
2022-10-13T13:44:03.283Z,105.40
2022-10-13T13:49:06.284Z,105.07
2022-10-13T13:54:08.293Z,106.23
2022-10-13T13:59:10.162Z,106.73
2022-10-13T14:04:12.040Z,105.64
2022-10-13T14:09:13.933Z,105.81
2022-10-13T14:14:15.941Z,106.04
2022-10-13T14:19:24.302Z,105.93
2022-10-13T14:24:33.322Z,106.24
2022-10-13T14:29:36.997Z,107.00
2022-10-13T14:34:38.871Z,108.17
2022-10-13T14:39:40.749Z,108.77
2022-10-13T14:44:42.600Z,109.19
2022-10-13T14:49:44.523Z,109.55
2022-10-13T14:54:46.536Z,109.84
2022-10-13T14:59:48.852Z,110.50
2022-10-13T15:04:50.813Z,111.49
2022-10-13T15:10:04.273Z,112.59
2022-10-13T15:15:08.210Z,112.97
2022-10-13T15:20:10.496Z,114.54
2022-10-13T15:25:12.555Z,114.15
2022-10-13T15:30:14.424Z,114.83
2022-10-13T15:35:16.369Z,115.80
2022-10-13T15:40:18.241Z,117.06
2022-10-13T15:45:20.128Z,117.72
2022-10-13T15:50:22.013Z,118.62
2022-10-13T15:55:24.040Z,-5.37
2022-10-13T16:00:26.277Z,-4.37
2022-10-13T16:05:28.429Z,-3.55
2022-10-13T16:10:30.461Z,-2.46
2022-10-13T16:15:32.378Z,-1.93
2022-10-13T16:20:37.636Z,-2.06
2022-10-13T16:25:39.952Z,-1.63
2022-10-13T16:30:42.510Z,-1.45
2022-10-13T16:35:47.679Z,-0.22
2022-10-13T16:40:52.391Z,-0.07
2022-10-13T16:46:00.514Z,0.55
2022-10-13T16:51:13.992Z,1.58
2022-10-13T16:56:21.172Z,3.21
2022-10-13T17:01:23.208Z,3.85
2022-10-13T17:06:27.945Z,4.03
2022-10-13T17:11:32.047Z,4.42
2022-10-13T17:16:34.468Z,5.75
2022-10-13T17:21:36.859Z,6.13
2022-10-13T17:26:40.562Z,7.27
2022-10-13T17:31:42.445Z,8.54
2022-10-13T17:36:44.347Z,10.38
2022-10-13T17:41:46.234Z,11.81
2022-10-13T17:46:49.976Z,11.23
2022-10-13T17:51:59.443Z,11.72
2022-10-13T17:57:08.377Z,12.88
2022-10-13T18:02:10.510Z,12.62
2022-10-13T18:07:12.609Z,12.75
2022-10-13T18:12:14.498Z,13.13
2022-10-13T18:17:16.518Z,14.52
2022-10-13T18:22:18.606Z,15.22
2022-10-13T18:27:20.715Z,16.84
2022-10-13T18:32:23.197Z,16.90
2022-10-13T18:37:25.091Z,18.22
2022-10-13T18:42:28.920Z,17.45
2022-10-13T18:47:30.690Z,17.38
2022-10-13T18:52:32.670Z,17.43
2022-10-13T18:57:35.253Z,17.09
2022-10-13T19:02:37.244Z,17.64
2022-10-13T19:07:39.313Z,17.57
2022-10-13T19:12:44.365Z,17.66
2022-10-13T19:17:46.286Z,17.94
2022-10-13T19:22:48.164Z,18.65
2022-10-13T19:27:50.235Z,19.24
2022-10-13T19:32:52.356Z,18.25
2022-10-13T19:37:54.316Z,19.22
2022-10-13T19:42:59.069Z,19.32
2022-10-13T19:48:00.952Z,20.09
2022-10-13T19:53:04.071Z,20.15
2022-10-13T19:58:06.586Z,19.99
2022-10-13T20:03:10.285Z,19.76
2022-10-13T20:08:14.083Z,20.06
2022-10-13T20:13:16.047Z,20.22
2022-10-13T20:18:18.006Z,19.83
2022-10-13T20:23:20.005Z,19.96
2022-10-13T20:28:21.948Z,20.25
2022-10-13T20:33:24.285Z,19.47
2022-10-13T20:38:26.898Z,19.89
2022-10-13T20:43:28.773Z,21.15
2022-10-13T20:48:51.494Z,21.89
2022-10-13T20:53:57.960Z,22.05
2022-10-13T20:59:08.602Z,21.72
2022-10-13T21:04:11.412Z,21.63
2022-10-13T21:09:13.228Z,21.84
2022-10-13T21:14:16.940Z,22.01
2022-10-13T21:19:19.088Z,21.82
2022-10-13T21:24:24.068Z,23.14
2022-10-13T21:29:25.957Z,23.55
2022-10-13T21:34:28.116Z,23.22
2022-10-13T21:39:30.053Z,23.20
2022-10-13T21:44:31.907Z,23.61
2022-10-13T21:49:33.888Z,24.10
2022-10-13T21:54:35.933Z,23.98
2022-10-13T21:59:37.968Z,24.48
2022-10-13T22:04:40.091Z,24.11
2022-10-13T22:09:42.038Z,23.57
2022-10-13T22:14:44.059Z,23.86
2022-10-13T22:19:46.116Z,25.06
2022-10-13T22:24:48.091Z,25.49
2022-10-13T22:29:51.818Z,26.53
2022-10-13T22:34:53.797Z,26.46
2022-10-13T22:39:55.895Z,27.59
2022-10-13T22:44:57.904Z,27.86
2022-10-13T22:50:06.245Z,26.68
2022-10-13T22:55:17.061Z,27.91
2022-10-13T23:00:19.236Z,28.76
2022-10-13T23:05:21.413Z,30.00
2022-10-13T23:10:23.950Z,29.37
2022-10-13T23:15:25.930Z,29.66
2022-10-13T23:20:28.149Z,29.74
2022-10-13T23:25:30.226Z,30.25
2022-10-13T23:30:32.237Z,30.13
2022-10-13T23:35:34.205Z,30.19
2022-10-13T23:40:36.461Z,28.77
2022-10-13T23:45:38.502Z,28.47
2022-10-13T23:50:42.621Z,29.13
2022-10-13T23:55:44.695Z,29.43
